< < Back
Terminal Aerodrome Forecast


Current Version              Previous Versions:   1  2  3  4  5  6  7  8  9  

Terminal Aerodrome Forecast

301
FTUS44 KMRX 281603 AAA
TAFTYS
TAF AMD
KTYS 281603Z 2816/2912 22014G22KT P6SM SCT030 BKN050
     FM282200 23015KT P6SM VCTS BKN040CB
     FM290200 24012KT 4SM -SHRA BR OVC015
     FM290600 22004KT P6SM OVC015
     FM291000 23004KT 4SM BR OVC015=



Latest METAR

323
SAUS80 KWBC 281800
MTRTYS
METAR KTYS 281753Z 21018G23KT 10SM SCT036 BKN055 31/19 A2994 RMK AO2
SLP125 T03060194 10306 20256 58012


USA.gov is the U.S. government's official web portal to all federal, state and local government web resources and services.